createdAt,value
2022-10-09T00:01:10.406Z,100.00
2022-10-09T00:03:38.783Z,100.00
2022-10-09T00:06:06.832Z,100.00
2022-10-09T00:08:39.265Z,100.00
2022-10-09T00:11:08.198Z,100.00
2022-10-09T00:13:37.879Z,100.00
2022-10-09T00:16:07.240Z,100.00
2022-10-09T00:18:36.745Z,100.00
2022-10-09T00:21:04.722Z,100.00
2022-10-09T00:23:31.532Z,100.00
2022-10-09T00:26:01.725Z,100.00
2022-10-09T00:28:30.014Z,100.00
2022-10-09T00:30:56.792Z,100.00
2022-10-09T00:33:23.292Z,100.00
2022-10-09T00:35:49.923Z,100.00
2022-10-09T00:38:18.810Z,100.00
2022-10-09T00:40:47.726Z,100.00
2022-10-09T00:43:20.098Z,100.00
2022-10-09T00:45:55.259Z,100.00
2022-10-09T00:48:22.809Z,100.00
2022-10-09T00:50:56.375Z,100.00
2022-10-09T00:53:28.947Z,100.00
2022-10-09T00:55:56.096Z,100.00
2022-10-09T00:58:24.901Z,100.00
2022-10-09T01:00:52.510Z,100.00
2022-10-09T01:03:19.052Z,100.00
2022-10-09T01:06:16.481Z,100.00
2022-10-09T01:09:20.999Z,100.00
2022-10-09T01:11:59.064Z,100.00
2022-10-09T01:14:29.572Z,100.00
2022-10-09T01:17:35.808Z,100.00
2022-10-09T01:20:10.361Z,100.00
2022-10-09T01:23:06.828Z,100.00
2022-10-09T01:26:16.919Z,100.00
2022-10-09T01:28:47.699Z,100.00
2022-10-09T01:31:16.759Z,100.00
2022-10-09T01:33:47.312Z,100.00
2022-10-09T01:36:16.017Z,100.00
2022-10-09T01:38:43.754Z,100.00
2022-10-09T01:41:15.400Z,100.00
2022-10-09T01:43:41.811Z,100.00
2022-10-09T01:46:29.202Z,100.00
2022-10-09T01:49:01.590Z,100.00
2022-10-09T01:51:33.317Z,100.00
2022-10-09T01:54:02.694Z,100.00
2022-10-09T01:56:33.119Z,100.00
2022-10-09T01:59:04.081Z,100.00
2022-10-09T02:01:36.513Z,100.00
2022-10-09T02:04:08.477Z,100.00
2022-10-09T02:06:40.862Z,100.00
2022-10-09T02:09:11.888Z,100.00
2022-10-09T02:11:40.861Z,100.00
2022-10-09T02:14:11.817Z,100.00
2022-10-09T02:16:39.873Z,100.00
2022-10-09T02:19:30.422Z,100.00
2022-10-09T02:22:13.006Z,100.00
2022-10-09T02:24:40.008Z,100.00
2022-10-09T02:27:07.783Z,100.00
2022-10-09T02:29:35.233Z,100.00
2022-10-09T02:32:01.602Z,100.00
2022-10-09T02:34:30.320Z,100.00
2022-10-09T02:36:56.789Z,100.00
2022-10-09T02:39:23.242Z,100.00
2022-10-09T02:41:49.663Z,100.00
2022-10-09T02:44:16.112Z,100.00
2022-10-09T02:46:45.090Z,100.00
2022-10-09T02:49:11.532Z,100.00
2022-10-09T02:51:38.173Z,100.00
2022-10-09T02:54:05.016Z,100.00
2022-10-09T02:56:34.507Z,100.00
2022-10-09T02:59:03.282Z,100.00
2022-10-09T03:01:29.690Z,100.00
2022-10-09T03:03:56.148Z,100.00
2022-10-09T03:06:27.535Z,100.00
2022-10-09T03:08:54.244Z,100.00
2022-10-09T03:11:23.007Z,100.00
2022-10-09T03:13:50.112Z,100.00
2022-10-09T03:16:19.321Z,100.00
2022-10-09T03:18:47.053Z,100.00
2022-10-09T03:21:18.883Z,100.00
2022-10-09T03:23:48.182Z,100.00
2022-10-09T03:26:17.544Z,100.00
2022-10-09T03:28:50.953Z,100.00
2022-10-09T03:31:39.754Z,100.00
2022-10-09T03:34:06.747Z,100.00
2022-10-09T03:36:33.158Z,100.00
2022-10-09T03:39:08.030Z,100.00
2022-10-09T03:41:34.958Z,100.00
2022-10-09T03:44:03.661Z,100.00
2022-10-09T03:46:30.237Z,100.00
2022-10-09T03:48:56.723Z,100.00
2022-10-09T03:51:23.079Z,100.00
2022-10-09T03:53:49.482Z,100.00
2022-10-09T03:56:15.894Z,100.00
2022-10-09T03:58:47.211Z,100.00
2022-10-09T04:01:13.689Z,100.00
2022-10-09T04:03:40.058Z,100.00
2022-10-09T04:06:06.589Z,100.00
2022-10-09T04:08:33.120Z,100.00
2022-10-09T04:11:04.377Z,100.00
2022-10-09T04:13:30.823Z,100.00
2022-10-09T04:15:57.375Z,100.00
2022-10-09T04:18:24.819Z,100.00
2022-10-09T04:20:55.955Z,100.00
2022-10-09T04:23:25.414Z,100.00
2022-10-09T04:25:59.504Z,100.00
2022-10-09T04:28:27.495Z,100.00
2022-10-09T04:30:54.556Z,100.00
2022-10-09T04:33:24.091Z,100.00
2022-10-09T04:35:52.580Z,100.00
2022-10-09T04:38:20.433Z,100.00
2022-10-09T04:41:01.157Z,100.00
2022-10-09T04:43:28.418Z,100.00
2022-10-09T04:45:55.424Z,100.00
2022-10-09T04:48:22.453Z,100.00
2022-10-09T04:50:49.036Z,100.00
2022-10-09T04:53:15.687Z,100.00
2022-10-09T04:55:43.374Z,100.00
2022-10-09T04:58:11.642Z,100.00
2022-10-09T05:00:43.013Z,100.00
2022-10-09T05:03:10.543Z,100.00
2022-10-09T05:05:37.392Z,100.00
2022-10-09T05:08:08.732Z,100.00
2022-10-09T05:10:35.291Z,100.00
2022-10-09T05:13:01.707Z,100.00
2022-10-09T05:15:30.413Z,100.00
2022-10-09T05:17:56.886Z,100.00
2022-10-09T05:20:23.364Z,100.00
2022-10-09T05:22:50.057Z,100.00
2022-10-09T05:25:16.921Z,100.00
2022-10-09T05:27:43.401Z,100.00
2022-10-09T05:30:12.677Z,100.00
2022-10-09T05:32:41.389Z,100.00
2022-10-09T05:35:08.269Z,100.00
2022-10-09T05:37:34.719Z,100.00
2022-10-09T05:40:03.922Z,100.00
2022-10-09T05:42:30.293Z,100.00
2022-10-09T05:44:56.757Z,100.00
2022-10-09T05:47:23.185Z,100.00
2022-10-09T05:49:49.549Z,100.00
2022-10-09T05:52:18.438Z,100.00
2022-10-09T05:54:44.962Z,100.00
2022-10-09T05:57:11.322Z,100.00
2022-10-09T05:59:37.771Z,100.00
2022-10-09T06:02:06.587Z,100.00
2022-10-09T06:04:33.124Z,100.00
2022-10-09T06:06:59.488Z,100.00
2022-10-09T06:09:26.535Z,100.00
2022-10-09T06:11:55.525Z,100.00
2022-10-09T06:14:22.581Z,100.00
2022-10-09T06:16:51.908Z,100.00
2022-10-09T06:19:19.921Z,100.00
2022-10-09T06:21:47.140Z,100.00
2022-10-09T06:24:27.256Z,100.00
2022-10-09T06:26:55.106Z,100.00
2022-10-09T06:29:21.631Z,100.00
2022-10-09T06:31:51.101Z,100.00
2022-10-09T06:34:22.298Z,100.00
2022-10-09T06:36:49.000Z,100.00
2022-10-09T06:39:18.057Z,100.00
2022-10-09T06:41:47.043Z,100.00
2022-10-09T06:44:16.678Z,100.00
2022-10-09T06:46:48.794Z,100.00
2022-10-09T06:49:15.356Z,100.00
2022-10-09T06:51:41.872Z,100.00
2022-10-09T06:54:13.605Z,100.00
2022-10-09T06:56:40.416Z,100.00
2022-10-09T06:59:07.593Z,100.00
2022-10-09T07:01:36.461Z,100.00
2022-10-09T07:04:07.523Z,100.00
2022-10-09T07:06:37.908Z,100.00
2022-10-09T07:09:07.242Z,100.00
2022-10-09T07:11:35.956Z,100.00
2022-10-09T07:14:05.717Z,100.00
2022-10-09T07:16:37.673Z,100.00
2022-10-09T07:19:07.560Z,100.00
2022-10-09T07:21:35.756Z,100.00
2022-10-09T07:24:03.532Z,100.00
2022-10-09T07:26:34.746Z,100.00
2022-10-09T07:29:05.179Z,100.00
2022-10-09T07:31:31.586Z,100.00
2022-10-09T07:33:58.046Z,100.00
2022-10-09T07:36:25.521Z,100.00
2022-10-09T07:38:54.297Z,100.00
2022-10-09T07:41:22.261Z,100.00
2022-10-09T07:43:48.867Z,100.00
2022-10-09T07:46:18.869Z,100.00
2022-10-09T07:48:46.541Z,100.00
2022-10-09T07:51:17.629Z,100.00
2022-10-09T07:53:44.908Z,100.00
2022-10-09T07:56:19.190Z,100.00
2022-10-09T07:58:58.840Z,100.00
2022-10-09T08:01:27.992Z,100.00
2022-10-09T08:03:59.886Z,100.00
2022-10-09T08:06:27.100Z,100.00
2022-10-09T08:08:56.727Z,100.00
2022-10-09T08:11:27.677Z,100.00
2022-10-09T08:13:54.118Z,99.13
2022-10-09T08:16:22.226Z,100.00
2022-10-09T08:18:48.697Z,100.00
2022-10-09T08:21:18.053Z,100.00
2022-10-09T08:23:45.581Z,100.00
2022-10-09T08:26:19.661Z,100.00
2022-10-09T08:28:56.106Z,100.00
2022-10-09T08:31:24.108Z,100.00
2022-10-09T08:33:58.167Z,100.00
2022-10-09T08:36:24.980Z,100.00
2022-10-09T08:38:52.149Z,100.00
2022-10-09T08:41:42.089Z,100.00
2022-10-09T08:44:25.422Z,90.54
2022-10-09T08:47:10.729Z,85.01
2022-10-09T08:49:57.798Z,84.89
2022-10-09T08:52:49.817Z,80.21
2022-10-09T08:55:35.577Z,79.43
2022-10-09T08:58:14.093Z,80.79
2022-10-09T09:00:45.998Z,78.24
2022-10-09T09:03:33.870Z,76.28
2022-10-09T09:06:14.777Z,75.00
2022-10-09T09:09:19.565Z,73.98
2022-10-09T09:11:54.947Z,74.34
2022-10-09T09:14:30.447Z,73.29
2022-10-09T09:17:37.784Z,74.11
2022-10-09T09:20:13.113Z,71.67
2022-10-09T09:22:47.381Z,73.28
2022-10-09T09:25:25.932Z,71.53
2022-10-09T09:28:07.684Z,72.28
2022-10-09T09:30:46.752Z,71.70
2022-10-09T09:33:25.373Z,71.36
2022-10-09T09:35:51.758Z,70.39
2022-10-09T09:38:18.185Z,71.46
2022-10-09T09:40:47.250Z,69.98
2022-10-09T09:43:23.133Z,70.47
2022-10-09T09:45:54.497Z,69.17
2022-10-09T09:48:35.465Z,67.92
2022-10-09T09:51:26.945Z,67.00
2022-10-09T09:53:57.873Z,66.84
2022-10-09T09:57:06.909Z,67.54
2022-10-09T09:59:40.504Z,65.49
2022-10-09T10:02:14.416Z,65.84
2022-10-09T10:05:14.634Z,65.36
2022-10-09T10:07:41.095Z,66.22
2022-10-09T10:10:23.971Z,65.12
2022-10-09T10:12:52.106Z,64.63
2022-10-09T10:15:26.620Z,64.76
2022-10-09T10:17:59.384Z,67.33
2022-10-09T10:20:27.183Z,64.81
2022-10-09T10:22:56.907Z,63.82
2022-10-09T10:25:33.552Z,64.30
2022-10-09T10:28:19.961Z,63.48
2022-10-09T10:30:50.111Z,65.15
2022-10-09T10:33:26.062Z,63.32
2022-10-09T10:35:55.939Z,63.69
2022-10-09T10:38:44.513Z,62.08
2022-10-09T10:41:33.986Z,62.44
2022-10-09T10:44:24.888Z,60.61
2022-10-09T10:46:58.741Z,60.50
2022-10-09T10:49:30.562Z,57.93
2022-10-09T10:52:15.393Z,58.61
2022-10-09T10:54:53.733Z,58.72
2022-10-09T10:57:20.605Z,58.47
2022-10-09T11:00:06.359Z,58.67
2022-10-09T11:02:58.470Z,57.84
2022-10-09T11:05:33.263Z,59.12
2022-10-09T11:08:02.449Z,58.98
2022-10-09T11:10:56.688Z,57.66
2022-10-09T11:13:29.712Z,54.86
2022-10-09T11:16:29.497Z,55.33
2022-10-09T11:19:05.227Z,55.43
2022-10-09T11:21:37.553Z,54.80
2022-10-09T11:24:29.169Z,55.38
2022-10-09T11:27:07.218Z,55.22
2022-10-09T11:29:40.491Z,54.49
2022-10-09T11:32:29.956Z,54.28
2022-10-09T11:35:12.575Z,53.67
2022-10-09T11:37:43.888Z,52.64
2022-10-09T11:40:34.036Z,54.17
2022-10-09T11:43:21.394Z,53.64
2022-10-09T11:45:58.458Z,52.91
2022-10-09T11:48:45.101Z,52.49
2022-10-09T11:51:32.908Z,52.63
2022-10-09T11:54:00.238Z,53.85
2022-10-09T11:56:29.771Z,52.76
2022-10-09T11:58:58.544Z,53.33
2022-10-09T12:01:31.632Z,51.81
2022-10-09T12:04:06.471Z,51.22
2022-10-09T12:06:45.748Z,51.89
2022-10-09T12:09:26.768Z,52.55
2022-10-09T12:12:07.331Z,53.73
2022-10-09T12:14:36.485Z,53.24
2022-10-09T12:17:35.296Z,52.80
2022-10-09T12:20:15.491Z,52.93
2022-10-09T12:23:01.519Z,53.00
2022-10-09T12:25:40.960Z,54.78
2022-10-09T12:28:29.934Z,53.78
2022-10-09T12:30:59.494Z,53.82
2022-10-09T12:33:40.277Z,55.06
2022-10-09T12:36:22.183Z,55.35
2022-10-09T12:38:48.900Z,54.88
2022-10-09T12:41:26.211Z,54.20
2022-10-09T12:43:55.371Z,54.17
2022-10-09T12:46:38.145Z,54.66
2022-10-09T12:49:14.883Z,51.74
2022-10-09T12:51:43.823Z,51.64
2022-10-09T12:54:10.554Z,52.21
2022-10-09T12:56:38.783Z,51.89
2022-10-09T12:59:07.108Z,51.28
2022-10-09T13:01:35.158Z,51.06
2022-10-09T13:04:08.379Z,51.37
2022-10-09T13:06:56.871Z,50.76
2022-10-09T13:09:37.016Z,51.47
2022-10-09T13:12:20.770Z,50.77
2022-10-09T13:15:07.149Z,51.84
2022-10-09T13:17:35.323Z,52.58
2022-10-09T13:20:27.131Z,49.88
2022-10-09T13:23:01.454Z,50.64
2022-10-09T13:25:33.080Z,50.75
2022-10-09T13:27:59.819Z,50.25
2022-10-09T13:30:28.199Z,50.74
2022-10-09T13:32:55.149Z,50.05
2022-10-09T13:35:24.294Z,51.16
2022-10-09T13:37:51.093Z,49.91
2022-10-09T13:40:20.713Z,49.68
2022-10-09T13:42:56.121Z,50.85
2022-10-09T13:45:22.873Z,50.20
2022-10-09T13:47:49.451Z,50.97
2022-10-09T13:50:17.693Z,51.06
2022-10-09T13:52:44.281Z,49.56
2022-10-09T13:55:11.068Z,50.69
2022-10-09T13:57:37.733Z,50.63
2022-10-09T14:00:06.014Z,51.51
2022-10-09T14:02:32.606Z,50.71
2022-10-09T14:04:59.019Z,51.08
2022-10-09T14:07:25.683Z,50.75
2022-10-09T14:09:54.713Z,49.34
2022-10-09T14:12:23.390Z,50.73
2022-10-09T14:14:56.434Z,51.92
2022-10-09T14:17:23.074Z,51.06
2022-10-09T14:19:49.481Z,51.18
2022-10-09T14:22:16.106Z,51.95
2022-10-09T14:24:47.409Z,51.73
2022-10-09T14:27:13.839Z,50.99
2022-10-09T14:29:40.266Z,51.04
2022-10-09T14:32:06.853Z,51.94
2022-10-09T14:34:33.291Z,51.56
2022-10-09T14:36:59.768Z,50.69
2022-10-09T14:39:28.768Z,51.58
2022-10-09T14:41:55.146Z,52.07
2022-10-09T14:44:21.601Z,51.74
2022-10-09T14:46:48.027Z,51.03
2022-10-09T14:49:14.644Z,52.07
2022-10-09T14:51:41.725Z,52.03
2022-10-09T14:54:11.839Z,52.00
2022-10-09T14:56:40.461Z,53.73
2022-10-09T14:59:06.956Z,52.34
2022-10-09T15:01:34.633Z,52.40
2022-10-09T15:04:01.789Z,52.57
2022-10-09T15:06:28.539Z,51.26
2022-10-09T15:09:00.409Z,51.87
2022-10-09T15:11:30.403Z,51.67
2022-10-09T15:13:57.314Z,53.11
2022-10-09T15:16:23.667Z,52.20
2022-10-09T15:18:52.122Z,51.42
2022-10-09T15:21:27.055Z,52.38
2022-10-09T15:23:55.253Z,51.86
2022-10-09T15:26:22.375Z,51.90
2022-10-09T15:28:51.105Z,52.86
2022-10-09T15:31:28.737Z,53.10
2022-10-09T15:33:57.351Z,51.84
2022-10-09T15:36:24.822Z,51.96
2022-10-09T15:38:51.418Z,52.25
2022-10-09T15:41:26.033Z,51.35
2022-10-09T15:43:55.705Z,52.28
2022-10-09T15:46:22.852Z,52.58
2022-10-09T15:48:49.454Z,53.11
2022-10-09T15:51:18.052Z,52.25
2022-10-09T15:53:46.311Z,53.13
2022-10-09T15:56:15.398Z,52.17
2022-10-09T15:58:42.076Z,52.94
2022-10-09T16:01:11.517Z,53.42
2022-10-09T16:03:40.948Z,53.34
2022-10-09T16:06:11.083Z,54.06
2022-10-09T16:08:37.863Z,54.00
2022-10-09T16:11:09.861Z,54.96
2022-10-09T16:13:39.149Z,54.98
2022-10-09T16:16:08.229Z,55.04
2022-10-09T16:18:35.166Z,54.87
2022-10-09T16:21:31.309Z,54.35
2022-10-09T16:23:59.629Z,54.55
2022-10-09T16:26:28.707Z,53.98
2022-10-09T16:28:55.226Z,53.87
2022-10-09T16:31:26.805Z,54.39
2022-10-09T16:33:53.341Z,55.24
2022-10-09T16:36:24.697Z,55.60
2022-10-09T16:38:51.143Z,55.86
2022-10-09T16:41:20.293Z,55.27
2022-10-09T16:43:48.760Z,56.15
2022-10-09T16:46:19.650Z,56.90
2022-10-09T16:48:47.190Z,55.92
2022-10-09T16:51:17.025Z,56.15
2022-10-09T16:53:43.476Z,57.01
2022-10-09T16:56:16.462Z,56.70
2022-10-09T16:58:43.883Z,57.15
2022-10-09T17:01:11.003Z,57.24
2022-10-09T17:03:40.406Z,57.68
2022-10-09T17:06:12.824Z,59.16
2022-10-09T17:08:39.573Z,59.13
2022-10-09T17:11:10.199Z,58.06
2022-10-09T17:13:37.057Z,58.57
2022-10-09T17:16:18.005Z,59.53
2022-10-09T17:18:46.017Z,58.70
2022-10-09T17:21:13.418Z,59.91
2022-10-09T17:23:40.416Z,58.39
2022-10-09T17:26:14.333Z,60.99
2022-10-09T17:28:43.930Z,59.90
2022-10-09T17:31:18.705Z,59.35
2022-10-09T17:33:48.109Z,61.74
2022-10-09T17:36:17.278Z,61.98
2022-10-09T17:38:44.758Z,60.92
2022-10-09T17:41:15.640Z,61.36
2022-10-09T17:43:42.335Z,60.46
2022-10-09T17:46:13.697Z,61.61
2022-10-09T17:48:44.489Z,61.08
2022-10-09T17:51:17.140Z,60.65
2022-10-09T17:53:45.139Z,61.71
2022-10-09T17:56:16.689Z,61.85
2022-10-09T17:58:44.511Z,60.63
2022-10-09T18:01:12.196Z,62.46
2022-10-09T18:03:38.678Z,62.55
2022-10-09T18:06:10.324Z,62.38
2022-10-09T18:08:36.871Z,64.56
2022-10-09T18:11:07.462Z,65.56
2022-10-09T18:13:36.113Z,64.73
2022-10-09T18:16:08.132Z,65.57
2022-10-09T18:18:35.193Z,64.19
2022-10-09T18:21:08.121Z,64.23
2022-10-09T18:23:37.957Z,64.47
2022-10-09T18:26:11.532Z,65.15
2022-10-09T18:28:42.632Z,65.41
2022-10-09T18:31:15.597Z,65.73
2022-10-09T18:33:42.624Z,65.22
2022-10-09T18:36:19.375Z,65.59
2022-10-09T18:38:48.395Z,65.78
2022-10-09T18:41:15.625Z,67.30
2022-10-09T18:43:42.094Z,65.74
2022-10-09T18:46:08.768Z,65.54
2022-10-09T18:48:37.824Z,65.84
2022-10-09T18:51:06.670Z,65.15
2022-10-09T18:53:37.887Z,65.56
2022-10-09T18:56:06.162Z,65.24
2022-10-09T18:58:34.713Z,66.26
2022-10-09T19:01:05.384Z,65.24
2022-10-09T19:03:33.645Z,66.57
2022-10-09T19:06:00.310Z,65.26
2022-10-09T19:08:27.409Z,65.31
2022-10-09T19:10:54.022Z,65.66
2022-10-09T19:13:20.727Z,66.45
2022-10-09T19:15:51.917Z,65.81
2022-10-09T19:18:18.502Z,65.03
2022-10-09T19:20:44.988Z,65.30
2022-10-09T19:23:15.228Z,65.48
2022-10-09T19:25:49.522Z,65.86
2022-10-09T19:28:17.108Z,65.62
2022-10-09T19:30:44.272Z,66.15
2022-10-09T19:33:11.824Z,66.12
2022-10-09T19:35:49.477Z,67.53
2022-10-09T19:38:19.113Z,68.17
2022-10-09T19:40:46.630Z,67.59
2022-10-09T19:43:14.171Z,67.31
2022-10-09T19:45:40.731Z,67.55
2022-10-09T19:48:07.145Z,68.35
2022-10-09T19:50:33.672Z,68.25
2022-10-09T19:53:03.213Z,68.09
2022-10-09T19:55:33.171Z,67.02
2022-10-09T19:58:00.390Z,67.15
2022-10-09T20:00:27.569Z,66.85
2022-10-09T20:02:53.991Z,66.86
2022-10-09T20:05:20.341Z,66.76
2022-10-09T20:07:46.846Z,66.91
2022-10-09T20:10:13.313Z,67.45
2022-10-09T20:12:39.790Z,66.92
2022-10-09T20:15:07.103Z,67.44
2022-10-09T20:17:33.509Z,67.89
2022-10-09T20:19:59.864Z,67.81
2022-10-09T20:22:26.317Z,67.86
2022-10-09T20:24:53.306Z,68.50
2022-10-09T20:27:19.813Z,69.81
2022-10-09T20:29:48.401Z,69.18
2022-10-09T20:32:14.930Z,69.44
2022-10-09T20:34:43.505Z,69.79
2022-10-09T20:37:12.322Z,69.05
2022-10-09T20:39:43.251Z,70.04
2022-10-09T20:42:09.830Z,69.75
2022-10-09T20:44:36.194Z,70.25
2022-10-09T20:47:02.643Z,70.47
2022-10-09T20:49:29.156Z,71.77
2022-10-09T20:51:56.791Z,70.83
2022-10-09T20:54:23.548Z,71.41
2022-10-09T20:56:54.507Z,70.99
2022-10-09T20:59:20.969Z,70.85
2022-10-09T21:01:47.597Z,71.18
2022-10-09T21:04:14.701Z,71.30
2022-10-09T21:06:45.842Z,72.18
2022-10-09T21:09:12.298Z,72.27
2022-10-09T21:11:40.240Z,72.58
2022-10-09T21:14:07.323Z,72.35
2022-10-09T21:16:36.762Z,72.40
2022-10-09T21:19:05.986Z,72.40
2022-10-09T21:21:33.787Z,72.54
2022-10-09T21:24:00.378Z,72.69
2022-10-09T21:26:28.981Z,73.00
2022-10-09T21:28:59.613Z,72.85
2022-10-09T21:31:31.469Z,73.10
2022-10-09T21:33:59.454Z,74.43
2022-10-09T21:37:09.005Z,73.80
2022-10-09T21:39:34.017Z,72.96
2022-10-09T21:42:04.683Z,73.36
2022-10-09T21:44:31.034Z,73.41
2022-10-09T21:46:59.720Z,73.88
2022-10-09T21:49:27.461Z,73.68
2022-10-09T21:51:56.870Z,73.65
2022-10-09T21:54:23.363Z,74.08
2022-10-09T21:56:49.794Z,73.34
2022-10-09T21:59:16.293Z,73.98
2022-10-09T22:01:42.771Z,73.60
2022-10-09T22:04:09.333Z,73.36
2022-10-09T22:06:38.069Z,74.03
2022-10-09T22:09:04.475Z,73.70
2022-10-09T22:11:30.964Z,74.01
2022-10-09T22:13:57.372Z,74.15
2022-10-09T22:16:23.819Z,75.40
2022-10-09T22:18:50.181Z,74.93
2022-10-09T22:21:18.181Z,74.76
2022-10-09T22:23:44.624Z,75.02
2022-10-09T22:26:17.459Z,74.69
2022-10-09T22:28:47.596Z,75.65
2022-10-09T22:31:21.764Z,76.09
2022-10-09T22:33:57.555Z,75.75
2022-10-09T22:36:26.018Z,75.66
2022-10-09T22:38:54.440Z,77.47
2022-10-09T22:41:22.701Z,77.75
2022-10-09T22:43:51.789Z,79.33
2022-10-09T22:46:21.358Z,79.94
2022-10-09T22:48:50.638Z,80.53
2022-10-09T22:51:18.761Z,81.26
2022-10-09T22:53:46.456Z,82.02
2022-10-09T22:56:22.559Z,82.11
2022-10-09T22:58:51.610Z,82.05
2022-10-09T23:01:25.130Z,83.32
2022-10-09T23:03:51.600Z,82.81
2022-10-09T23:06:19.991Z,83.42
2022-10-09T23:08:50.426Z,83.71
2022-10-09T23:11:18.732Z,83.21
2022-10-09T23:13:48.419Z,83.28
2022-10-09T23:16:15.409Z,83.07
2022-10-09T23:18:46.609Z,83.26
2022-10-09T23:21:15.582Z,85.21
2022-10-09T23:23:43.581Z,84.78
2022-10-09T23:26:14.725Z,84.48
2022-10-09T23:28:44.370Z,83.68
2022-10-09T23:31:14.659Z,84.47
2022-10-09T23:33:42.834Z,84.41
2022-10-09T23:36:13.480Z,86.12
2022-10-09T23:38:40.075Z,86.15
2022-10-09T23:41:10.627Z,86.24
2022-10-09T23:43:38.558Z,86.84
2022-10-09T23:46:07.412Z,87.17
2022-10-09T23:48:34.484Z,87.35
2022-10-09T23:51:01.001Z,87.92
2022-10-09T23:53:27.964Z,87.67
2022-10-09T23:55:54.871Z,87.90
2022-10-09T23:58:22.317Z,89.53
